sensor_id;sensor_type;location;lat;lon;timestamp;P1;P2;P0
49644;PMS5003;36494;50.730;-1.932;2023-06-14T00:01:47;21;21;
49644;PMS5003;36494;50.730;-1.932;2023-06-14T00:04:12;21;21;
49644;PMS5003;36494;50.730;-1.932;2023-06-14T00:06:37;19;19;
49644;PMS5003;36494;50.730;-1.932;2023-06-14T00:09:02;18;18;
49644;PMS5003;36494;50.730;-1.932;2023-06-14T00:11:28;23;21;
49644;PMS5003;36494;50.730;-1.932;2023-06-14T00:13:53;20;19;
49644;PMS5003;36494;50.730;-1.932;2023-06-14T00:16:19;21;21;
49644;PMS5003;36494;50.730;-1.932;2023-06-14T00:18:44;18;18;
49644;PMS5003;36494;50.730;-1.932;2023-06-14T00:21:10;21;21;
49644;PMS5003;36494;50.730;-1.932;2023-06-14T00:23:35;21;20;
49644;PMS5003;36494;50.730;-1.932;2023-06-14T00:26:01;21;20;
49644;PMS5003;36494;50.730;-1.932;2023-06-14T00:28:26;21;21;
49644;PMS5003;36494;50.730;-1.932;2023-06-14T00:30:52;22;22;
49644;PMS5003;36494;50.730;-1.932;2023-06-14T00:33:17;23;21;
49644;PMS5003;36494;50.730;-1.932;2023-06-14T00:35:42;24;23;
49644;PMS5003;36494;50.730;-1.932;2023-06-14T00:38:07;21;20;
49644;PMS5003;36494;50.730;-1.932;2023-06-14T00:40:33;23;23;
49644;PMS5003;36494;50.730;-1.932;2023-06-14T00:42:58;23;22;
49644;PMS5003;36494;50.730;-1.932;2023-06-14T00:45:24;23;22;
49644;PMS5003;36494;50.730;-1.932;2023-06-14T00:47:50;20;20;
49644;PMS5003;36494;50.730;-1.932;2023-06-14T00:50:15;21;20;
49644;PMS5003;36494;50.730;-1.932;2023-06-14T00:52:41;21;21;
49644;PMS5003;36494;50.730;-1.932;2023-06-14T00:55:06;19;19;
49644;PMS5003;36494;50.730;-1.932;2023-06-14T00:57:31;22;21;
49644;PMS5003;36494;50.730;-1.932;2023-06-14T00:59:56;21;20;
49644;PMS5003;36494;50.730;-1.932;2023-06-14T01:02:22;21;20;
49644;PMS5003;36494;50.730;-1.932;2023-06-14T01:04:47;21;20;
49644;PMS5003;36494;50.730;-1.932;2023-06-14T01:07:15;19;18;
49644;PMS5003;36494;50.730;-1.932;2023-06-14T01:09:41;22;20;
49644;PMS5003;36494;50.730;-1.932;2023-06-14T01:12:04;21;20;
49644;PMS5003;36494;50.730;-1.932;2023-06-14T01:14:28;21;20;
49644;PMS5003;36494;50.730;-1.932;2023-06-14T01:16:54;22;22;
49644;PMS5003;36494;50.730;-1.932;2023-06-14T01:19:19;24;24;
49644;PMS5003;36494;50.730;-1.932;2023-06-14T01:21:45;25;24;
49644;PMS5003;36494;50.730;-1.932;2023-06-14T01:24:10;22;22;
49644;PMS5003;36494;50.730;-1.932;2023-06-14T01:26:35;26;25;
49644;PMS5003;36494;50.730;-1.932;2023-06-14T01:29:01;22;22;
49644;PMS5003;36494;50.730;-1.932;2023-06-14T01:31:26;24;23;
49644;PMS5003;36494;50.730;-1.932;2023-06-14T01:33:51;24;22;
49644;PMS5003;36494;50.730;-1.932;2023-06-14T01:36:17;23;21;
49644;PMS5003;36494;50.730;-1.932;2023-06-14T01:38:42;27;27;
49644;PMS5003;36494;50.730;-1.932;2023-06-14T01:41:06;24;23;
49644;PMS5003;36494;50.730;-1.932;2023-06-14T01:43:32;24;23;
49644;PMS5003;36494;50.730;-1.932;2023-06-14T01:45:57;21;20;
49644;PMS5003;36494;50.730;-1.932;2023-06-14T01:48:23;21;21;
49644;PMS5003;36494;50.730;-1.932;2023-06-14T01:50:48;20;20;
49644;PMS5003;36494;50.730;-1.932;2023-06-14T01:53:14;23;23;
49644;PMS5003;36494;50.730;-1.932;2023-06-14T01:55:40;22;21;
49644;PMS5003;36494;50.730;-1.932;2023-06-14T01:58:05;21;21;
49644;PMS5003;36494;50.730;-1.932;2023-06-14T02:00:31;25;24;
49644;PMS5003;36494;50.730;-1.932;2023-06-14T02:02:56;25;23;
49644;PMS5003;36494;50.730;-1.932;2023-06-14T02:05:21;22;22;
49644;PMS5003;36494;50.730;-1.932;2023-06-14T02:07:46;23;22;
49644;PMS5003;36494;50.730;-1.932;2023-06-14T02:10:11;23;22;
49644;PMS5003;36494;50.730;-1.932;2023-06-14T02:12:37;23;23;
49644;PMS5003;36494;50.730;-1.932;2023-06-14T02:15:03;25;24;
49644;PMS5003;36494;50.730;-1.932;2023-06-14T02:17:28;23;22;
49644;PMS5003;36494;50.730;-1.932;2023-06-14T02:19:53;20;19;
49644;PMS5003;36494;50.730;-1.932;2023-06-14T02:22:18;23;23;
49644;PMS5003;36494;50.730;-1.932;2023-06-14T02:24:44;22;22;
49644;PMS5003;36494;50.730;-1.932;2023-06-14T02:27:09;22;22;
49644;PMS5003;36494;50.730;-1.932;2023-06-14T02:29:34;22;21;
49644;PMS5003;36494;50.730;-1.932;2023-06-14T02:32:00;25;24;
49644;PMS5003;36494;50.730;-1.932;2023-06-14T02:34:25;22;22;
49644;PMS5003;36494;50.730;-1.932;2023-06-14T02:36:51;20;20;
49644;PMS5003;36494;50.730;-1.932;2023-06-14T02:39:17;29;28;
49644;PMS5003;36494;50.730;-1.932;2023-06-14T02:41:42;23;22;
49644;PMS5003;36494;50.730;-1.932;2023-06-14T02:44:07;24;23;
49644;PMS5003;36494;50.730;-1.932;2023-06-14T02:46:32;23;23;
49644;PMS5003;36494;50.730;-1.932;2023-06-14T02:48:57;24;23;
49644;PMS5003;36494;50.730;-1.932;2023-06-14T02:51:22;24;24;
49644;PMS5003;36494;50.730;-1.932;2023-06-14T02:53:47;18;18;
49644;PMS5003;36494;50.730;-1.932;2023-06-14T02:56:13;22;22;
49644;PMS5003;36494;50.730;-1.932;2023-06-14T02:58:38;21;20;
49644;PMS5003;36494;50.730;-1.932;2023-06-14T03:01:04;21;19;
49644;PMS5003;36494;50.730;-1.932;2023-06-14T03:03:29;23;21;
49644;PMS5003;36494;50.730;-1.932;2023-06-14T03:05:54;19;18;
49644;PMS5003;36494;50.730;-1.932;2023-06-14T03:08:19;23;21;
49644;PMS5003;36494;50.730;-1.932;2023-06-14T03:10:44;24;22;
49644;PMS5003;36494;50.730;-1.932;2023-06-14T03:13:09;22;21;
49644;PMS5003;36494;50.730;-1.932;2023-06-14T03:15:34;22;22;
49644;PMS5003;36494;50.730;-1.932;2023-06-14T03:17:59;21;20;
49644;PMS5003;36494;50.730;-1.932;2023-06-14T03:20:25;18;18;
49644;PMS5003;36494;50.730;-1.932;2023-06-14T03:22:50;21;20;
49644;PMS5003;36494;50.730;-1.932;2023-06-14T03:25:16;19;17;
49644;PMS5003;36494;50.730;-1.932;2023-06-14T03:27:41;18;17;
49644;PMS5003;36494;50.730;-1.932;2023-06-14T03:30:07;20;20;
49644;PMS5003;36494;50.730;-1.932;2023-06-14T03:32:32;18;17;
49644;PMS5003;36494;50.730;-1.932;2023-06-14T03:34:57;20;19;
49644;PMS5003;36494;50.730;-1.932;2023-06-14T03:37:22;21;20;
49644;PMS5003;36494;50.730;-1.932;2023-06-14T03:39:47;17;16;
49644;PMS5003;36494;50.730;-1.932;2023-06-14T03:42:13;16;16;
49644;PMS5003;36494;50.730;-1.932;2023-06-14T03:44:38;18;18;
49644;PMS5003;36494;50.730;-1.932;2023-06-14T03:47:03;19;19;
49644;PMS5003;36494;50.730;-1.932;2023-06-14T03:49:28;18;17;
49644;PMS5003;36494;50.730;-1.932;2023-06-14T03:51:53;14;13;
49644;PMS5003;36494;50.730;-1.932;2023-06-14T03:54:19;19;19;
49644;PMS5003;36494;50.730;-1.932;2023-06-14T03:56:44;17;16;
49644;PMS5003;36494;50.730;-1.932;2023-06-14T03:59:09;15;15;
49644;PMS5003;36494;50.730;-1.932;2023-06-14T04:01:34;17;17;
49644;PMS5003;36494;50.730;-1.932;2023-06-14T04:03:59;17;15;
49644;PMS5003;36494;50.730;-1.932;2023-06-14T04:06:25;16;16;
49644;PMS5003;36494;50.730;-1.932;2023-06-14T04:08:50;16;16;
49644;PMS5003;36494;50.730;-1.932;2023-06-14T04:11:15;17;16;
49644;PMS5003;36494;50.730;-1.932;2023-06-14T04:13:40;18;16;
49644;PMS5003;36494;50.730;-1.932;2023-06-14T04:16:06;12;12;
49644;PMS5003;36494;50.730;-1.932;2023-06-14T04:18:31;14;14;
49644;PMS5003;36494;50.730;-1.932;2023-06-14T04:20:56;16;15;
49644;PMS5003;36494;50.730;-1.932;2023-06-14T04:23:21;16;16;
49644;PMS5003;36494;50.730;-1.932;2023-06-14T04:25:47;16;16;
49644;PMS5003;36494;50.730;-1.932;2023-06-14T04:28:12;16;15;
49644;PMS5003;36494;50.730;-1.932;2023-06-14T04:30:37;16;16;
49644;PMS5003;36494;50.730;-1.932;2023-06-14T04:33:03;15;15;
49644;PMS5003;36494;50.730;-1.932;2023-06-14T04:35:28;16;15;
49644;PMS5003;36494;50.730;-1.932;2023-06-14T04:37:53;18;18;
49644;PMS5003;36494;50.730;-1.932;2023-06-14T04:40:19;16;15;
49644;PMS5003;36494;50.730;-1.932;2023-06-14T04:42:44;16;14;
49644;PMS5003;36494;50.730;-1.932;2023-06-14T04:45:10;15;15;
49644;PMS5003;36494;50.730;-1.932;2023-06-14T04:47:35;19;17;
49644;PMS5003;36494;50.730;-1.932;2023-06-14T04:50:00;15;15;
49644;PMS5003;36494;50.730;-1.932;2023-06-14T04:52:25;12;12;
49644;PMS5003;36494;50.730;-1.932;2023-06-14T04:54:51;13;13;
49644;PMS5003;36494;50.730;-1.932;2023-06-14T04:57:16;13;12;
49644;PMS5003;36494;50.730;-1.932;2023-06-14T04:59:41;14;13;
49644;PMS5003;36494;50.730;-1.932;2023-06-14T05:02:06;13;13;
49644;PMS5003;36494;50.730;-1.932;2023-06-14T05:04:32;12;11;
49644;PMS5003;36494;50.730;-1.932;2023-06-14T05:06:57;15;15;
49644;PMS5003;36494;50.730;-1.932;2023-06-14T05:09:22;14;14;
49644;PMS5003;36494;50.730;-1.932;2023-06-14T05:11:47;15;15;
49644;PMS5003;36494;50.730;-1.932;2023-06-14T05:14:13;17;14;
49644;PMS5003;36494;50.730;-1.932;2023-06-14T05:16:38;13;13;
49644;PMS5003;36494;50.730;-1.932;2023-06-14T05:19:03;12;11;
49644;PMS5003;36494;50.730;-1.932;2023-06-14T05:21:29;14;14;
49644;PMS5003;36494;50.730;-1.932;2023-06-14T05:23:54;13;13;
49644;PMS5003;36494;50.730;-1.932;2023-06-14T05:26:20;13;12;
49644;PMS5003;36494;50.730;-1.932;2023-06-14T05:28:45;11;10;
49644;PMS5003;36494;50.730;-1.932;2023-06-14T05:31:10;12;10;
49644;PMS5003;36494;50.730;-1.932;2023-06-14T05:33:36;11;11;
49644;PMS5003;36494;50.730;-1.932;2023-06-14T05:36:01;12;12;
49644;PMS5003;36494;50.730;-1.932;2023-06-14T05:38:26;12;12;
49644;PMS5003;36494;50.730;-1.932;2023-06-14T05:40:52;12;11;
49644;PMS5003;36494;50.730;-1.932;2023-06-14T05:43:17;11;11;
49644;PMS5003;36494;50.730;-1.932;2023-06-14T05:45:42;12;12;
49644;PMS5003;36494;50.730;-1.932;2023-06-14T05:48:07;11;11;
49644;PMS5003;36494;50.730;-1.932;2023-06-14T05:50:33;9;9;
49644;PMS5003;36494;50.730;-1.932;2023-06-14T05:52:58;11;11;
49644;PMS5003;36494;50.730;-1.932;2023-06-14T05:55:23;11;11;
49644;PMS5003;36494;50.730;-1.932;2023-06-14T05:57:49;10;10;
49644;PMS5003;36494;50.730;-1.932;2023-06-14T06:00:14;9;9;
49644;PMS5003;36494;50.730;-1.932;2023-06-14T06:02:39;10;9;
49644;PMS5003;36494;50.730;-1.932;2023-06-14T06:05:05;9;9;
49644;PMS5003;36494;50.730;-1.932;2023-06-14T06:07:30;10;10;
49644;PMS5003;36494;50.730;-1.932;2023-06-14T06:09:55;9;9;
49644;PMS5003;36494;50.730;-1.932;2023-06-14T06:12:21;10;10;
49644;PMS5003;36494;50.730;-1.932;2023-06-14T06:14:46;8;8;
49644;PMS5003;36494;50.730;-1.932;2023-06-14T06:17:11;11;10;
49644;PMS5003;36494;50.730;-1.932;2023-06-14T06:19:37;8;8;
49644;PMS5003;36494;50.730;-1.932;2023-06-14T06:22:02;9;9;
49644;PMS5003;36494;50.730;-1.932;2023-06-14T06:24:27;8;8;
49644;PMS5003;36494;50.730;-1.932;2023-06-14T06:26:52;10;9;
49644;PMS5003;36494;50.730;-1.932;2023-06-14T06:29:18;9;9;
49644;PMS5003;36494;50.730;-1.932;2023-06-14T06:31:43;10;9;
49644;PMS5003;36494;50.730;-1.932;2023-06-14T06:34:08;10;10;
49644;PMS5003;36494;50.730;-1.932;2023-06-14T06:36:34;10;10;
49644;PMS5003;36494;50.730;-1.932;2023-06-14T06:38:59;9;9;
49644;PMS5003;36494;50.730;-1.932;2023-06-14T06:41:24;9;9;
49644;PMS5003;36494;50.730;-1.932;2023-06-14T06:43:50;10;9;
49644;PMS5003;36494;50.730;-1.932;2023-06-14T06:46:15;12;11;
49644;PMS5003;36494;50.730;-1.932;2023-06-14T06:48:41;10;10;
49644;PMS5003;36494;50.730;-1.932;2023-06-14T06:51:06;9;8;
49644;PMS5003;36494;50.730;-1.932;2023-06-14T06:53:31;10;9;
49644;PMS5003;36494;50.730;-1.932;2023-06-14T06:55:56;8;8;
49644;PMS5003;36494;50.730;-1.932;2023-06-14T06:58:22;10;10;
49644;PMS5003;36494;50.730;-1.932;2023-06-14T07:00:47;10;10;
49644;PMS5003;36494;50.730;-1.932;2023-06-14T07:03:12;10;9;
49644;PMS5003;36494;50.730;-1.932;2023-06-14T07:05:37;7;7;
49644;PMS5003;36494;50.730;-1.932;2023-06-14T07:08:03;8;8;
49644;PMS5003;36494;50.730;-1.932;2023-06-14T07:10:28;12;12;
49644;PMS5003;36494;50.730;-1.932;2023-06-14T07:12:53;11;10;
49644;PMS5003;36494;50.730;-1.932;2023-06-14T07:15:19;8;8;
49644;PMS5003;36494;50.730;-1.932;2023-06-14T07:17:44;9;9;
49644;PMS5003;36494;50.730;-1.932;2023-06-14T07:20:10;9;8;
49644;PMS5003;36494;50.730;-1.932;2023-06-14T07:22:34;9;9;
49644;PMS5003;36494;50.730;-1.932;2023-06-14T07:25:00;6;6;
49644;PMS5003;36494;50.730;-1.932;2023-06-14T07:27:25;8;8;
49644;PMS5003;36494;50.730;-1.932;2023-06-14T07:29:51;6;5;
49644;PMS5003;36494;50.730;-1.932;2023-06-14T07:32:16;6;6;
49644;PMS5003;36494;50.730;-1.932;2023-06-14T07:34:41;9;9;
49644;PMS5003;36494;50.730;-1.932;2023-06-14T07:37:07;8;7;
49644;PMS5003;36494;50.730;-1.932;2023-06-14T07:39:32;7;7;
49644;PMS5003;36494;50.730;-1.932;2023-06-14T07:41:57;5;5;
49644;PMS5003;36494;50.730;-1.932;2023-06-14T07:44:23;5;5;
49644;PMS5003;36494;50.730;-1.932;2023-06-14T07:46:48;8;8;
49644;PMS5003;36494;50.730;-1.932;2023-06-14T07:49:13;8;7;
49644;PMS5003;36494;50.730;-1.932;2023-06-14T07:51:39;5;5;
49644;PMS5003;36494;50.730;-1.932;2023-06-14T07:54:04;10;9;
49644;PMS5003;36494;50.730;-1.932;2023-06-14T07:56:29;6;6;
49644;PMS5003;36494;50.730;-1.932;2023-06-14T07:58:55;8;8;
49644;PMS5003;36494;50.730;-1.932;2023-06-14T08:01:21;7;7;
49644;PMS5003;36494;50.730;-1.932;2023-06-14T08:03:46;9;8;
49644;PMS5003;36494;50.730;-1.932;2023-06-14T08:06:11;7;7;
49644;PMS5003;36494;50.730;-1.932;2023-06-14T08:08:37;7;6;
49644;PMS5003;36494;50.730;-1.932;2023-06-14T08:11:02;8;8;
49644;PMS5003;36494;50.730;-1.932;2023-06-14T08:13:27;9;9;
49644;PMS5003;36494;50.730;-1.932;2023-06-14T08:15:53;8;7;
49644;PMS5003;36494;50.730;-1.932;2023-06-14T08:18:18;7;6;
49644;PMS5003;36494;50.730;-1.932;2023-06-14T08:20:43;5;5;
49644;PMS5003;36494;50.730;-1.932;2023-06-14T08:23:09;6;6;
49644;PMS5003;36494;50.730;-1.932;2023-06-14T08:25:34;7;7;
49644;PMS5003;36494;50.730;-1.932;2023-06-14T08:27:59;8;7;
49644;PMS5003;36494;50.730;-1.932;2023-06-14T08:30:25;7;7;
49644;PMS5003;36494;50.730;-1.932;2023-06-14T08:32:50;6;6;
49644;PMS5003;36494;50.730;-1.932;2023-06-14T08:35:16;10;10;
49644;PMS5003;36494;50.730;-1.932;2023-06-14T08:37:41;10;10;
49644;PMS5003;36494;50.730;-1.932;2023-06-14T08:40:12;10;9;
49644;PMS5003;36494;50.730;-1.932;2023-06-14T08:42:32;7;7;
49644;PMS5003;36494;50.730;-1.932;2023-06-14T08:44:58;8;8;
49644;PMS5003;36494;50.730;-1.932;2023-06-14T08:47:23;10;8;
49644;PMS5003;36494;50.730;-1.932;2023-06-14T08:49:48;8;8;
49644;PMS5003;36494;50.730;-1.932;2023-06-14T08:52:14;7;7;
49644;PMS5003;36494;50.730;-1.932;2023-06-14T08:54:39;8;7;
49644;PMS5003;36494;50.730;-1.932;2023-06-14T08:57:05;7;7;
49644;PMS5003;36494;50.730;-1.932;2023-06-14T08:59:30;10;8;
49644;PMS5003;36494;50.730;-1.932;2023-06-14T09:01:55;8;8;
49644;PMS5003;36494;50.730;-1.932;2023-06-14T09:04:21;8;8;
49644;PMS5003;36494;50.730;-1.932;2023-06-14T09:06:46;9;8;
49644;PMS5003;36494;50.730;-1.932;2023-06-14T09:09:11;8;8;
49644;PMS5003;36494;50.730;-1.932;2023-06-14T09:11:37;8;7;
49644;PMS5003;36494;50.730;-1.932;2023-06-14T09:14:02;7;6;
49644;PMS5003;36494;50.730;-1.932;2023-06-14T09:16:27;7;7;
49644;PMS5003;36494;50.730;-1.932;2023-06-14T09:18:53;6;6;
49644;PMS5003;36494;50.730;-1.932;2023-06-14T09:21:18;8;8;
49644;PMS5003;36494;50.730;-1.932;2023-06-14T09:23:44;6;6;
49644;PMS5003;36494;50.730;-1.932;2023-06-14T09:26:09;10;9;
49644;PMS5003;36494;50.730;-1.932;2023-06-14T09:28:34;8;7;
49644;PMS5003;36494;50.730;-1.932;2023-06-14T09:30:59;8;7;
49644;PMS5003;36494;50.730;-1.932;2023-06-14T09:33:25;8;8;
49644;PMS5003;36494;50.730;-1.932;2023-06-14T09:35:51;8;8;
49644;PMS5003;36494;50.730;-1.932;2023-06-14T09:38:16;10;10;
49644;PMS5003;36494;50.730;-1.932;2023-06-14T09:40:41;8;8;
49644;PMS5003;36494;50.730;-1.932;2023-06-14T09:43:07;11;10;
49644;PMS5003;36494;50.730;-1.932;2023-06-14T09:45:32;8;8;
49644;PMS5003;36494;50.730;-1.932;2023-06-14T09:47:57;12;10;
49644;PMS5003;36494;50.730;-1.932;2023-06-14T09:50:22;7;6;
49644;PMS5003;36494;50.730;-1.932;2023-06-14T09:52:48;8;8;
49644;PMS5003;36494;50.730;-1.932;2023-06-14T09:55:13;8;8;
49644;PMS5003;36494;50.730;-1.932;2023-06-14T09:57:38;10;10;
49644;PMS5003;36494;50.730;-1.932;2023-06-14T10:00:04;9;9;
49644;PMS5003;36494;50.730;-1.932;2023-06-14T10:02:31;7;6;
49644;PMS5003;36494;50.730;-1.932;2023-06-14T10:04:57;9;9;
49644;PMS5003;36494;50.730;-1.932;2023-06-14T10:07:20;9;9;
49644;PMS5003;36494;50.730;-1.932;2023-06-14T10:09:46;8;8;
49644;PMS5003;36494;50.730;-1.932;2023-06-14T10:12:11;9;9;
49644;PMS5003;36494;50.730;-1.932;2023-06-14T10:14:36;10;10;
49644;PMS5003;36494;50.730;-1.932;2023-06-14T10:17:03;11;11;
49644;PMS5003;36494;50.730;-1.932;2023-06-14T10:19:27;11;11;
49644;PMS5003;36494;50.730;-1.932;2023-06-14T10:21:55;9;9;
49644;PMS5003;36494;50.730;-1.932;2023-06-14T10:24:17;7;7;
49644;PMS5003;36494;50.730;-1.932;2023-06-14T10:29:08;11;10;
49644;PMS5003;36494;50.730;-1.932;2023-06-14T10:31:41;10;10;
49644;PMS5003;36494;50.730;-1.932;2023-06-14T10:33:58;9;9;
49644;PMS5003;36494;50.730;-1.932;2023-06-14T10:36:24;8;8;
49644;PMS5003;36494;50.730;-1.932;2023-06-14T10:41:14;10;9;
49644;PMS5003;36494;50.730;-1.932;2023-06-14T10:43:40;10;10;
49644;PMS5003;36494;50.730;-1.932;2023-06-14T10:46:13;11;11;
49644;PMS5003;36494;50.730;-1.932;2023-06-14T10:48:30;8;8;
49644;PMS5003;36494;50.730;-1.932;2023-06-14T10:50:59;9;9;
49644;PMS5003;36494;50.730;-1.932;2023-06-14T10:53:22;9;9;
49644;PMS5003;36494;50.730;-1.932;2023-06-14T10:55:47;11;11;
49644;PMS5003;36494;50.730;-1.932;2023-06-14T10:58:12;11;11;
49644;PMS5003;36494;50.730;-1.932;2023-06-14T11:00:37;10;10;
49644;PMS5003;36494;50.730;-1.932;2023-06-14T11:05:28;11;11;
49644;PMS5003;36494;50.730;-1.932;2023-06-14T11:07:58;11;11;
49644;PMS5003;36494;50.730;-1.932;2023-06-14T11:10:21;14;13;
49644;PMS5003;36494;50.730;-1.932;2023-06-14T11:12:44;12;12;
49644;PMS5003;36494;50.730;-1.932;2023-06-14T11:15:09;11;11;
49644;PMS5003;36494;50.730;-1.932;2023-06-14T11:17:34;11;11;
49644;PMS5003;36494;50.730;-1.932;2023-06-14T11:20:08;11;10;
49644;PMS5003;36494;50.730;-1.932;2023-06-14T11:22:25;10;10;
49644;PMS5003;36494;50.730;-1.932;2023-06-14T11:24:50;12;10;
49644;PMS5003;36494;50.730;-1.932;2023-06-14T11:27:16;11;10;
49644;PMS5003;36494;50.730;-1.932;2023-06-14T11:32:07;14;14;
49644;PMS5003;36494;50.730;-1.932;2023-06-14T11:34:32;11;11;
49644;PMS5003;36494;50.730;-1.932;2023-06-14T11:36:57;13;13;
49644;PMS5003;36494;50.730;-1.932;2023-06-14T11:39:24;12;12;
49644;PMS5003;36494;50.730;-1.932;2023-06-14T11:41:48;13;12;
49644;PMS5003;36494;50.730;-1.932;2023-06-14T11:44:13;13;12;
49644;PMS5003;36494;50.730;-1.932;2023-06-14T11:46:39;12;12;
49644;PMS5003;36494;50.730;-1.932;2023-06-14T11:49:04;14;12;
49644;PMS5003;36494;50.730;-1.932;2023-06-14T11:51:30;12;12;
49644;PMS5003;36494;50.730;-1.932;2023-06-14T11:53:55;12;12;
49644;PMS5003;36494;50.730;-1.932;2023-06-14T11:56:21;12;12;
49644;PMS5003;36494;50.730;-1.932;2023-06-14T11:58:46;15;14;
49644;PMS5003;36494;50.730;-1.932;2023-06-14T12:01:14;12;12;
49644;PMS5003;36494;50.730;-1.932;2023-06-14T12:03:37;14;14;
49644;PMS5003;36494;50.730;-1.932;2023-06-14T12:06:03;15;15;
49644;PMS5003;36494;50.730;-1.932;2023-06-14T12:08:31;15;15;
49644;PMS5003;36494;50.730;-1.932;2023-06-14T12:10:53;15;15;
49644;PMS5003;36494;50.730;-1.932;2023-06-14T12:13:18;15;14;
49644;PMS5003;36494;50.730;-1.932;2023-06-14T12:15:43;12;12;
49644;PMS5003;36494;50.730;-1.932;2023-06-14T12:18:09;17;16;
49644;PMS5003;36494;50.730;-1.932;2023-06-14T12:20:34;14;14;
49644;PMS5003;36494;50.730;-1.932;2023-06-14T12:22:59;18;17;
49644;PMS5003;36494;50.730;-1.932;2023-06-14T12:25:28;17;17;
49644;PMS5003;36494;50.730;-1.932;2023-06-14T12:27:50;13;13;
49644;PMS5003;36494;50.730;-1.932;2023-06-14T12:30:15;16;15;
49644;PMS5003;36494;50.730;-1.932;2023-06-14T12:32:40;18;18;
49644;PMS5003;36494;50.730;-1.932;2023-06-14T12:35:06;16;16;
49644;PMS5003;36494;50.730;-1.932;2023-06-14T12:37:31;17;16;
49644;PMS5003;36494;50.730;-1.932;2023-06-14T12:39:57;20;20;
49644;PMS5003;36494;50.730;-1.932;2023-06-14T12:42:23;18;18;
49644;PMS5003;36494;50.730;-1.932;2023-06-14T12:44:49;20;19;
49644;PMS5003;36494;50.730;-1.932;2023-06-14T12:47:14;21;19;
49644;PMS5003;36494;50.730;-1.932;2023-06-14T12:49:40;17;17;
49644;PMS5003;36494;50.730;-1.932;2023-06-14T12:52:06;17;16;
49644;PMS5003;36494;50.730;-1.932;2023-06-14T12:54:31;17;16;
49644;PMS5003;36494;50.730;-1.932;2023-06-14T12:56:57;15;15;
49644;PMS5003;36494;50.730;-1.932;2023-06-14T12:59:23;17;16;
49644;PMS5003;36494;50.730;-1.932;2023-06-14T13:01:48;18;18;
49644;PMS5003;36494;50.730;-1.932;2023-06-14T13:04:14;18;18;
49644;PMS5003;36494;50.730;-1.932;2023-06-14T13:06:40;16;16;
49644;PMS5003;36494;50.730;-1.932;2023-06-14T13:09:05;18;18;
49644;PMS5003;36494;50.730;-1.932;2023-06-14T13:11:30;20;19;
49644;PMS5003;36494;50.730;-1.932;2023-06-14T13:13:55;22;20;
49644;PMS5003;36494;50.730;-1.932;2023-06-14T13:16:20;20;18;
49644;PMS5003;36494;50.730;-1.932;2023-06-14T13:18:46;20;19;
49644;PMS5003;36494;50.730;-1.932;2023-06-14T13:21:12;21;19;
49644;PMS5003;36494;50.730;-1.932;2023-06-14T13:23:37;21;21;
49644;PMS5003;36494;50.730;-1.932;2023-06-14T13:26:02;23;23;
49644;PMS5003;36494;50.730;-1.932;2023-06-14T13:28:28;19;19;
49644;PMS5003;36494;50.730;-1.932;2023-06-14T13:30:54;20;19;
49644;PMS5003;36494;50.730;-1.932;2023-06-14T13:33:19;23;20;
49644;PMS5003;36494;50.730;-1.932;2023-06-14T13:35:44;26;24;
49644;PMS5003;36494;50.730;-1.932;2023-06-14T13:38:10;23;22;
49644;PMS5003;36494;50.730;-1.932;2023-06-14T13:40:35;22;22;
49644;PMS5003;36494;50.730;-1.932;2023-06-14T13:43:01;24;23;
49644;PMS5003;36494;50.730;-1.932;2023-06-14T13:45:26;21;20;
49644;PMS5003;36494;50.730;-1.932;2023-06-14T13:47:52;19;19;
49644;PMS5003;36494;50.730;-1.932;2023-06-14T13:50:17;22;22;
49644;PMS5003;36494;50.730;-1.932;2023-06-14T13:52:43;22;22;
49644;PMS5003;36494;50.730;-1.932;2023-06-14T13:55:09;21;20;
49644;PMS5003;36494;50.730;-1.932;2023-06-14T13:57:35;27;24;
49644;PMS5003;36494;50.730;-1.932;2023-06-14T14:00:00;24;23;
49644;PMS5003;36494;50.730;-1.932;2023-06-14T14:02:26;23;22;
49644;PMS5003;36494;50.730;-1.932;2023-06-14T14:04:51;20;20;
49644;PMS5003;36494;50.730;-1.932;2023-06-14T14:07:17;22;22;
49644;PMS5003;36494;50.730;-1.932;2023-06-14T14:09:42;23;22;
49644;PMS5003;36494;50.730;-1.932;2023-06-14T14:12:08;24;23;
49644;PMS5003;36494;50.730;-1.932;2023-06-14T14:14:33;25;24;
49644;PMS5003;36494;50.730;-1.932;2023-06-14T14:16:58;23;22;
49644;PMS5003;36494;50.730;-1.932;2023-06-14T14:19:23;23;23;
49644;PMS5003;36494;50.730;-1.932;2023-06-14T14:21:49;21;21;
49644;PMS5003;36494;50.730;-1.932;2023-06-14T14:24:14;21;21;
49644;PMS5003;36494;50.730;-1.932;2023-06-14T14:26:40;26;24;
49644;PMS5003;36494;50.730;-1.932;2023-06-14T14:29:05;23;23;
49644;PMS5003;36494;50.730;-1.932;2023-06-14T14:31:31;24;22;
49644;PMS5003;36494;50.730;-1.932;2023-06-14T14:33:56;23;23;
49644;PMS5003;36494;50.730;-1.932;2023-06-14T14:36:22;25;24;
49644;PMS5003;36494;50.730;-1.932;2023-06-14T14:38:47;26;26;
49644;PMS5003;36494;50.730;-1.932;2023-06-14T14:41:13;27;25;
49644;PMS5003;36494;50.730;-1.932;2023-06-14T14:43:38;29;28;
49644;PMS5003;36494;50.730;-1.932;2023-06-14T14:46:04;24;22;
49644;PMS5003;36494;50.730;-1.932;2023-06-14T14:48:29;23;23;
49644;PMS5003;36494;50.730;-1.932;2023-06-14T14:50:54;26;24;
49644;PMS5003;36494;50.730;-1.932;2023-06-14T14:53:20;24;22;
49644;PMS5003;36494;50.730;-1.932;2023-06-14T14:55:46;26;26;
49644;PMS5003;36494;50.730;-1.932;2023-06-14T14:58:12;26;25;
49644;PMS5003;36494;50.730;-1.932;2023-06-14T15:00:37;26;25;
49644;PMS5003;36494;50.730;-1.932;2023-06-14T15:03:02;29;26;
49644;PMS5003;36494;50.730;-1.932;2023-06-14T15:05:27;26;25;
49644;PMS5003;36494;50.730;-1.932;2023-06-14T15:07:53;25;24;
49644;PMS5003;36494;50.730;-1.932;2023-06-14T15:10:19;25;24;
49644;PMS5003;36494;50.730;-1.932;2023-06-14T15:12:44;24;23;
49644;PMS5003;36494;50.730;-1.932;2023-06-14T15:15:09;27;24;
49644;PMS5003;36494;50.730;-1.932;2023-06-14T15:17:34;29;26;
49644;PMS5003;36494;50.730;-1.932;2023-06-14T15:20:00;25;24;
49644;PMS5003;36494;50.730;-1.932;2023-06-14T15:22:26;25;24;
49644;PMS5003;36494;50.730;-1.932;2023-06-14T15:24:51;25;25;
49644;PMS5003;36494;50.730;-1.932;2023-06-14T15:27:17;29;27;
49644;PMS5003;36494;50.730;-1.932;2023-06-14T15:29:42;23;22;
49644;PMS5003;36494;50.730;-1.932;2023-06-14T15:32:08;27;27;
49644;PMS5003;36494;50.730;-1.932;2023-06-14T15:34:33;25;24;
49644;PMS5003;36494;50.730;-1.932;2023-06-14T15:36:58;24;24;
49644;PMS5003;36494;50.730;-1.932;2023-06-14T15:39:23;23;22;
49644;PMS5003;36494;50.730;-1.932;2023-06-14T15:41:49;27;26;
49644;PMS5003;36494;50.730;-1.932;2023-06-14T15:44:14;25;25;
49644;PMS5003;36494;50.730;-1.932;2023-06-14T15:46:39;25;24;
49644;PMS5003;36494;50.730;-1.932;2023-06-14T15:49:06;25;25;
49644;PMS5003;36494;50.730;-1.932;2023-06-14T15:51:31;26;23;
49644;PMS5003;36494;50.730;-1.932;2023-06-14T15:53:56;24;24;
49644;PMS5003;36494;50.730;-1.932;2023-06-14T15:56:21;26;25;
49644;PMS5003;36494;50.730;-1.932;2023-06-14T15:58:47;23;23;
49644;PMS5003;36494;50.730;-1.932;2023-06-14T16:01:12;28;26;
49644;PMS5003;36494;50.730;-1.932;2023-06-14T16:03:38;23;22;
49644;PMS5003;36494;50.730;-1.932;2023-06-14T16:06:04;26;25;